sensor_id;sensor_type;location;lat;lon;timestamp;P1;P2;P0
45788;PMS7003;31492;54.856;26.318;2022-09-04T02:14:14;1.8;1.3;1.3
45788;PMS7003;31492;54.856;26.318;2022-09-04T02:18:45;1;0.6;0.4
45788;PMS7003;31492;54.856;26.318;2022-09-04T02:23:48;1.4;1.4;1
45788;PMS7003;31492;54.856;26.318;2022-09-04T02:28:53;1;1;0.8
45788;PMS7003;31492;54.856;26.318;2022-09-04T02:33:40;1.4;1;1
45788;PMS7003;31492;54.856;26.318;2022-09-04T02:38:46;1.2;1;0.6
45788;PMS7003;31492;54.856;26.318;2022-09-04T02:44:45;1.6;1.2;0.8
45788;PMS7003;31492;54.856;26.318;2022-09-04T02:48:44;1;1;1
45788;PMS7003;31492;54.856;26.318;2022-09-04T02:58:42;1.4;1.2;1
45788;PMS7003;31492;54.856;26.318;2022-09-04T03:03:44;1.2;1;1
45788;PMS7003;31492;54.856;26.318;2022-09-04T03:08:38;1.8;1.3;1.3
45788;PMS7003;31492;54.856;26.318;2022-09-04T03:13:41;1.6;1.4;1.2
45788;PMS7003;31492;54.856;26.318;2022-09-04T03:19:18;1.8;0.8;0.8
45788;PMS7003;31492;54.856;26.318;2022-09-04T03:23:48;1.4;1.2;1.2
45788;PMS7003;31492;54.856;26.318;2022-09-04T03:29:48;1.5;1.3;1
45788;PMS7003;31492;54.856;26.318;2022-09-04T03:33:38;1.6;1.2;1.2
45788;PMS7003;31492;54.856;26.318;2022-09-04T03:38:47;1.2;0.6;0.6
45788;PMS7003;31492;54.856;26.318;2022-09-04T03:43:55;1.6;1;0.8
45788;PMS7003;31492;54.856;26.318;2022-09-04T03:48:50;1.5;1.4;1.2
45788;PMS7003;31492;54.856;26.318;2022-09-04T03:53:41;1.8;1.8;1.5
45788;PMS7003;31492;54.856;26.318;2022-09-04T04:03:54;2;2;1.4
45788;PMS7003;31492;54.856;26.318;2022-09-04T04:09:49;1.8;1.6;1.4
45788;PMS7003;31492;54.856;26.318;2022-09-04T04:14:53;2.3;1.5;1.3
45788;PMS7003;31492;54.856;26.318;2022-09-04T04:18:46;2.2;1.8;1.6
45788;PMS7003;31492;54.856;26.318;2022-09-04T04:23:48;2.6;1.8;1.2
45788;PMS7003;31492;54.856;26.318;2022-09-04T04:28:41;2.4;2.2;1.8
45788;PMS7003;31492;54.856;26.318;2022-09-04T04:33:50;3.3;3;1.8
45788;PMS7003;31492;54.856;26.318;2022-09-04T04:44:10;3.4;2.6;2
45788;PMS7003;31492;54.856;26.318;2022-09-04T04:48:47;3;2.8;2.4
45788;PMS7003;31492;54.856;26.318;2022-09-04T04:53:51;3.3;2.8;2
45788;PMS7003;31492;54.856;26.318;2022-09-04T04:59:02;6.4;5;3.4
45788;PMS7003;31492;54.856;26.318;2022-09-04T05:08:43;2.6;2.4;2.2
45788;PMS7003;31492;54.856;26.318;2022-09-04T05:13:45;2.5;2.5;1.8
45788;PMS7003;31492;54.856;26.318;2022-09-04T05:19:19;3;2.6;2.2
45788;PMS7003;31492;54.856;26.318;2022-09-04T05:28:49;2;1.6;1.4
45788;PMS7003;31492;54.856;26.318;2022-09-04T05:34:03;2.5;2.3;1.8
45788;PMS7003;31492;54.856;26.318;2022-09-04T05:38:46;4;2.8;2.3
45788;PMS7003;31492;54.856;26.318;2022-09-04T05:44:17;1.8;1.8;1.6
45788;PMS7003;31492;54.856;26.318;2022-09-04T05:54:53;2.4;2.4;1.8
45788;PMS7003;31492;54.856;26.318;2022-09-04T05:58:53;3;2.8;2
45788;PMS7003;31492;54.856;26.318;2022-09-04T06:03:52;2.6;2.2;2
45788;PMS7003;31492;54.856;26.318;2022-09-04T06:09:01;3.6;3;2.2
45788;PMS7003;31492;54.856;26.318;2022-09-04T06:13:49;9.8;8.4;5.6
45788;PMS7003;31492;54.856;26.318;2022-09-04T06:18:45;9;6.8;5.3
45788;PMS7003;31492;54.856;26.318;2022-09-04T06:23:49;8.8;8.4;5.4
45788;PMS7003;31492;54.856;26.318;2022-09-04T06:28:47;4.8;3.6;2.6
45788;PMS7003;31492;54.856;26.318;2022-09-04T06:33:47;2.4;2;1.8
45788;PMS7003;31492;54.856;26.318;2022-09-04T06:38:46;2.3;1.3;1
45788;PMS7003;31492;54.856;26.318;2022-09-04T06:43:42;2;1.6;1
45788;PMS7003;31492;54.856;26.318;2022-09-04T06:49:03;1.2;1.2;1
45788;PMS7003;31492;54.856;26.318;2022-09-04T06:53:41;2;1.6;1.4
45788;PMS7003;31492;54.856;26.318;2022-09-04T06:59:00;1;1;1
45788;PMS7003;31492;54.856;26.318;2022-09-04T07:03:52;1;0.8;0.6
45788;PMS7003;31492;54.856;26.318;2022-09-04T07:08:58;1.2;0.6;0.4
45788;PMS7003;31492;54.856;26.318;2022-09-04T07:19:19;0.5;0.5;0.3
45788;PMS7003;31492;54.856;26.318;2022-09-04T07:23:53;0.6;0.4;0.2
45788;PMS7003;31492;54.856;26.318;2022-09-04T07:28:50;0.2;0.2;0.2
45788;PMS7003;31492;54.856;26.318;2022-09-04T07:33:50;0;0;0
45788;PMS7003;31492;54.856;26.318;2022-09-04T07:38:59;0;0;0
45788;PMS7003;31492;54.856;26.318;2022-09-04T07:43:44;0;0;0
45788;PMS7003;31492;54.856;26.318;2022-09-04T07:48:46;0;0;0
45788;PMS7003;31492;54.856;26.318;2022-09-04T07:54:16;0.4;0.2;0
45788;PMS7003;31492;54.856;26.318;2022-09-04T08:03:49;0;0;0
45788;PMS7003;31492;54.856;26.318;2022-09-04T08:08:49;0;0;0
45788;PMS7003;31492;54.856;26.318;2022-09-04T08:13:48;0;0;0
45788;PMS7003;31492;54.856;26.318;2022-09-04T08:23:47;0;0;0
45788;PMS7003;31492;54.856;26.318;2022-09-04T08:29:18;0;0;0
45788;PMS7003;31492;54.856;26.318;2022-09-04T08:33:40;0;0;0
45788;PMS7003;31492;54.856;26.318;2022-09-04T08:38:47;0;0;0
45788;PMS7003;31492;54.856;26.318;2022-09-04T08:44:24;0;0;0
45788;PMS7003;31492;54.856;26.318;2022-09-04T08:48:49;0;0;0
45788;PMS7003;31492;54.856;26.318;2022-09-04T09:04:19;0.3;0.3;0.3
45788;PMS7003;31492;54.856;26.318;2022-09-04T09:09:49;0.2;0.2;0.2
45788;PMS7003;31492;54.856;26.318;2022-09-04T09:13:45;0;0;0
45788;PMS7003;31492;54.856;26.318;2022-09-04T09:29:01;0;0;0
45788;PMS7003;31492;54.856;26.318;2022-09-04T09:33:52;0;0;0
45788;PMS7003;31492;54.856;26.318;2022-09-04T09:38:52;0;0;0
45788;PMS7003;31492;54.856;26.318;2022-09-04T09:43:45;0;0;0
45788;PMS7003;31492;54.856;26.318;2022-09-04T09:48:54;0;0;0
45788;PMS7003;31492;54.856;26.318;2022-09-04T09:53:48;0;0;0
45788;PMS7003;31492;54.856;26.318;2022-09-04T09:59:01;0;0;0
45788;PMS7003;31492;54.856;26.318;2022-09-04T10:03:53;0;0;0
45788;PMS7003;31492;54.856;26.318;2022-09-04T10:08:57;0;0;0
45788;PMS7003;31492;54.856;26.318;2022-09-04T10:13:52;0;0;0
45788;PMS7003;31492;54.856;26.318;2022-09-04T10:18:47;0;0;0
45788;PMS7003;31492;54.856;26.318;2022-09-04T10:23:46;0;0;0
45788;PMS7003;31492;54.856;26.318;2022-09-04T10:28:48;0;0;0
45788;PMS7003;31492;54.856;26.318;2022-09-04T10:33:43;0;0;0
45788;PMS7003;31492;54.856;26.318;2022-09-04T10:39:58;0;0;0
45788;PMS7003;31492;54.856;26.318;2022-09-04T10:44:52;0;0;0
45788;PMS7003;31492;54.856;26.318;2022-09-04T10:53:56;0;0;0
45788;PMS7003;31492;54.856;26.318;2022-09-04T10:58:51;0;0;0
45788;PMS7003;31492;54.856;26.318;2022-09-04T11:08:51;0;0;0
45788;PMS7003;31492;54.856;26.318;2022-09-04T11:13:45;0;0;0
45788;PMS7003;31492;54.856;26.318;2022-09-04T11:23:52;0;0;0
45788;PMS7003;31492;54.856;26.318;2022-09-04T11:28:54;0;0;0
45788;PMS7003;31492;54.856;26.318;2022-09-04T11:34:52;0;0;0
45788;PMS7003;31492;54.856;26.318;2022-09-04T11:43:51;0;0;0
45788;PMS7003;31492;54.856;26.318;2022-09-04T12:03:47;0;0;0
45788;PMS7003;31492;54.856;26.318;2022-09-04T12:08:52;0;0;0
45788;PMS7003;31492;54.856;26.318;2022-09-04T12:13:49;0;0;0
45788;PMS7003;31492;54.856;26.318;2022-09-04T12:18:50;0;0;0
45788;PMS7003;31492;54.856;26.318;2022-09-04T12:24:50;0;0;0
45788;PMS7003;31492;54.856;26.318;2022-09-04T12:29:00;0;0;0
45788;PMS7003;31492;54.856;26.318;2022-09-04T12:33:56;0;0;0
45788;PMS7003;31492;54.856;26.318;2022-09-04T12:38:43;0;0;0
45788;PMS7003;31492;54.856;26.318;2022-09-04T12:49:51;0;0;0
45788;PMS7003;31492;54.856;26.318;2022-09-04T12:54:29;0;0;0
45788;PMS7003;31492;54.856;26.318;2022-09-04T12:58:44;0;0;0
45788;PMS7003;31492;54.856;26.318;2022-09-04T13:03:27;0;0;0
45788;PMS7003;31492;54.856;26.318;2022-09-04T13:09:06;0;0;0
45788;PMS7003;31492;54.856;26.318;2022-09-04T13:18:43;0;0;0
45788;PMS7003;31492;54.856;26.318;2022-09-04T13:24:19;0;0;0
45788;PMS7003;31492;54.856;26.318;2022-09-04T13:28:51;0;0;0
45788;PMS7003;31492;54.856;26.318;2022-09-04T13:33:52;0;0;0
45788;PMS7003;31492;54.856;26.318;2022-09-04T13:38:51;0;0;0
45788;PMS7003;31492;54.856;26.318;2022-09-04T13:44:30;0;0;0
45788;PMS7003;31492;54.856;26.318;2022-09-04T13:48:51;0;0;0
45788;PMS7003;31492;54.856;26.318;2022-09-04T13:54:16;0;0;0
45788;PMS7003;31492;54.856;26.318;2022-09-04T13:58:42;0;0;0
45788;PMS7003;31492;54.856;26.318;2022-09-04T14:03:47;0;0;0
45788;PMS7003;31492;54.856;26.318;2022-09-04T14:08:46;0;0;0
45788;PMS7003;31492;54.856;26.318;2022-09-04T14:14:04;0;0;0
45788;PMS7003;31492;54.856;26.318;2022-09-04T14:18:47;0;0;0
45788;PMS7003;31492;54.856;26.318;2022-09-04T14:23:50;0.2;0;0
45788;PMS7003;31492;54.856;26.318;2022-09-04T14:33:49;0;0;0
45788;PMS7003;31492;54.856;26.318;2022-09-04T14:39:51;0;0;0
45788;PMS7003;31492;54.856;26.318;2022-09-04T14:43:51;0;0;0
45788;PMS7003;31492;54.856;26.318;2022-09-04T14:48:45;0.2;0;0
45788;PMS7003;31492;54.856;26.318;2022-09-04T14:53:49;0;0;0
45788;PMS7003;31492;54.856;26.318;2022-09-04T14:58:45;0;0;0
45788;PMS7003;31492;54.856;26.318;2022-09-04T15:03:55;0;0;0
45788;PMS7003;31492;54.856;26.318;2022-09-04T15:08:41;1.2;0.2;0.2
45788;PMS7003;31492;54.856;26.318;2022-09-04T15:13:46;0;0;0
45788;PMS7003;31492;54.856;26.318;2022-09-04T15:18:49;0;0;0
45788;PMS7003;31492;54.856;26.318;2022-09-04T15:23:45;6;3;1.5
45788;PMS7003;31492;54.856;26.318;2022-09-04T15:28:45;0.6;0;0
45788;PMS7003;31492;54.856;26.318;2022-09-04T15:33:37;0;0;0
45788;PMS7003;31492;54.856;26.318;2022-09-04T15:38:45;0;0;0
45788;PMS7003;31492;54.856;26.318;2022-09-04T15:43:38;0;0;0
45788;PMS7003;31492;54.856;26.318;2022-09-04T15:48:45;0.2;0;0
45788;PMS7003;31492;54.856;26.318;2022-09-04T15:54:22;0.2;0;0
45788;PMS7003;31492;54.856;26.318;2022-09-04T15:58:10;0;0;0
45788;PMS7003;31492;54.856;26.318;2022-09-04T16:04:08;0.3;0.3;0
45788;PMS7003;31492;54.856;26.318;2022-09-04T16:08:43;0;0;0
45788;PMS7003;31492;54.856;26.318;2022-09-04T16:13:44;0;0;0
45788;PMS7003;31492;54.856;26.318;2022-09-04T16:18:39;0;0;0
45788;PMS7003;31492;54.856;26.318;2022-09-04T16:23:41;0;0;0
45788;PMS7003;31492;54.856;26.318;2022-09-04T16:28:48;0;0;0
45788;PMS7003;31492;54.856;26.318;2022-09-04T16:33:46;0.2;0;0
45788;PMS7003;31492;54.856;26.318;2022-09-04T16:38:44;0;0;0
45788;PMS7003;31492;54.856;26.318;2022-09-04T16:44:00;0;0;0
45788;PMS7003;31492;54.856;26.318;2022-09-04T16:48:51;0;0;0
45788;PMS7003;31492;54.856;26.318;2022-09-04T16:53:49;0.2;0;0
45788;PMS7003;31492;54.856;26.318;2022-09-04T16:58:44;0.2;0;0
45788;PMS7003;31492;54.856;26.318;2022-09-04T17:03:49;0;0;0
45788;PMS7003;31492;54.856;26.318;2022-09-04T17:08:46;0;0;0
45788;PMS7003;31492;54.856;26.318;2022-09-04T17:13:45;0.2;0;0
45788;PMS7003;31492;54.856;26.318;2022-09-04T17:18:45;0;0;0
45788;PMS7003;31492;54.856;26.318;2022-09-04T17:23:47;0;0;0
45788;PMS7003;31492;54.856;26.318;2022-09-04T17:28:47;0;0;0
45788;PMS7003;31492;54.856;26.318;2022-09-04T17:33:51;0;0;0
45788;PMS7003;31492;54.856;26.318;2022-09-04T17:38:43;0.2;0;0
45788;PMS7003;31492;54.856;26.318;2022-09-04T17:48:41;0;0;0
45788;PMS7003;31492;54.856;26.318;2022-09-04T17:53:46;0;0;0
45788;PMS7003;31492;54.856;26.318;2022-09-04T17:58:45;0;0;0
45788;PMS7003;31492;54.856;26.318;2022-09-04T18:03:54;0.2;0;0
45788;PMS7003;31492;54.856;26.318;2022-09-04T18:08:59;0.3;0;0
45788;PMS7003;31492;54.856;26.318;2022-09-04T18:13:49;0.2;0;0
45788;PMS7003;31492;54.856;26.318;2022-09-04T18:18:48;0;0;0
45788;PMS7003;31492;54.856;26.318;2022-09-04T18:23:47;0.2;0.2;0.2
45788;PMS7003;31492;54.856;26.318;2022-09-04T18:28:56;0;0;0
45788;PMS7003;31492;54.856;26.318;2022-09-04T18:33:46;0.5;0;0
45788;PMS7003;31492;54.856;26.318;2022-09-04T18:38:47;0;0;0
45788;PMS7003;31492;54.856;26.318;2022-09-04T18:44:15;0.3;0;0
45788;PMS7003;31492;54.856;26.318;2022-09-04T18:48:43;0.2;0.2;0.2
45788;PMS7003;31492;54.856;26.318;2022-09-04T18:53:43;0.2;0;0
45788;PMS7003;31492;54.856;26.318;2022-09-04T18:58:48;0;0;0
45788;PMS7003;31492;54.856;26.318;2022-09-04T19:03:41;0.3;0;0
45788;PMS7003;31492;54.856;26.318;2022-09-04T19:08:46;0;0;0
45788;PMS7003;31492;54.856;26.318;2022-09-04T19:13:58;0;0;0
45788;PMS7003;31492;54.856;26.318;2022-09-04T19:18:44;0.3;0;0
45788;PMS7003;31492;54.856;26.318;2022-09-04T19:23:47;0.4;0.4;0
45788;PMS7003;31492;54.856;26.318;2022-09-04T19:28:45;0;0;0
45788;PMS7003;31492;54.856;26.318;2022-09-04T19:33:47;0.5;0.5;0
45788;PMS7003;31492;54.856;26.318;2022-09-04T19:38:47;0.2;0.2;0
45788;PMS7003;31492;54.856;26.318;2022-09-04T19:43:51;0.4;0.2;0
45788;PMS7003;31492;54.856;26.318;2022-09-04T19:48:36;0;0;0
45788;PMS7003;31492;54.856;26.318;2022-09-04T19:53:44;0.2;0.2;0
45788;PMS7003;31492;54.856;26.318;2022-09-04T19:58:47;0;0;0
45788;PMS7003;31492;54.856;26.318;2022-09-04T20:03:46;0.2;0.2;0
45788;PMS7003;31492;54.856;26.318;2022-09-04T20:08:40;0.2;0.2;0
45788;PMS7003;31492;54.856;26.318;2022-09-04T20:13:46;0.2;0.2;0
45788;PMS7003;31492;54.856;26.318;2022-09-04T20:18:48;0.3;0;0
45788;PMS7003;31492;54.856;26.318;2022-09-04T20:23:48;0.4;0.2;0
45788;PMS7003;31492;54.856;26.318;2022-09-04T20:29:36;0.2;0.2;0
45788;PMS7003;31492;54.856;26.318;2022-09-04T20:33:39;0.2;0;0
45788;PMS7003;31492;54.856;26.318;2022-09-04T20:39:02;0;0;0
45788;PMS7003;31492;54.856;26.318;2022-09-04T20:44:04;0.4;0;0
45788;PMS7003;31492;54.856;26.318;2022-09-04T20:48:55;0;0;0
45788;PMS7003;31492;54.856;26.318;2022-09-04T20:54:08;0.6;0;0
45788;PMS7003;31492;54.856;26.318;2022-09-04T20:58:58;0.8;0.3;0.3
45788;PMS7003;31492;54.856;26.318;2022-09-04T21:03:48;2.2;1.6;0.8
45788;PMS7003;31492;54.856;26.318;2022-09-04T21:13:48;0.8;0.6;0.4
45788;PMS7003;31492;54.856;26.318;2022-09-04T21:19:23;0.2;0.2;0.2
45788;PMS7003;31492;54.856;26.318;2022-09-04T21:24:39;0;0;0
45788;PMS7003;31492;54.856;26.318;2022-09-04T21:28:53;0.2;0.2;0.2
45788;PMS7003;31492;54.856;26.318;2022-09-04T21:34:18;0;0;0
45788;PMS7003;31492;54.856;26.318;2022-09-04T21:38:46;0;0;0
45788;PMS7003;31492;54.856;26.318;2022-09-04T21:48:52;0;0;0
45788;PMS7003;31492;54.856;26.318;2022-09-04T21:53:55;0.2;0;0
45788;PMS7003;31492;54.856;26.318;2022-09-04T21:58:48;0.2;0;0
45788;PMS7003;31492;54.856;26.318;2022-09-04T22:03:43;0.5;0;0
45788;PMS7003;31492;54.856;26.318;2022-09-04T22:08:39;0.2;0.2;0
45788;PMS7003;31492;54.856;26.318;2022-09-04T22:14:53;0.2;0;0
45788;PMS7003;31492;54.856;26.318;2022-09-04T22:18:54;0.2;0.2;0
45788;PMS7003;31492;54.856;26.318;2022-09-04T22:24:53;0.3;0.3;0
45788;PMS7003;31492;54.856;26.318;2022-09-04T22:28:59;0.6;0.4;0.2
